Time;durP1;ratioP1;P1;durP2;ratioP2;P2;SDS_P1;SDS_P2;PMS_P1;PMS_P2;Temp;Humidity;BMP_temperature;BMP_pressure;BME280_temperature;BME280_humidity;BME280_pressure;Samples;Min_cycle;Max_cycle;Signal;HPM_P1;HPM_P2
2023/02/03 00:02:57;;;;;;;;;;;;;;;18.67;38.30;96666.56;10462885;28;2269;-53
2023/02/03 00:07:57;;;;;;;;;;;;;;;18.68;38.47;96662.13;10469121;28;2283;-48
2023/02/03 00:12:57;;;;;;;;;;;;;;;18.65;38.11;96673.09;10463266;28;2285;-49
2023/02/03 00:17:57;;;;;;;;;;;;;;;18.62;38.29;96676.19;10459168;28;2342;-51
2023/02/03 00:23:04;;;;;;;;;;;;;;;18.60;38.16;96675.66;10445553;28;2622;-53
2023/02/03 00:28:05;;;;;;;;;;;;;;;18.58;37.98;96659.34;10421608;28;2344;-53
2023/02/03 00:33:05;;;;;;;;;;;;;;;18.55;37.80;96659.78;10416913;28;2280;-52
2023/02/03 00:38:05;;;;;;;;;;;;;;;18.52;38.04;96649.78;10417377;28;2273;-52
2023/02/03 00:43:05;;;;;;;;;;;;;;;18.49;37.75;96658.13;10423808;28;2642;-50
2023/02/03 00:48:06;;;;;;;;;;;;;;;18.46;37.77;96664.66;10416411;28;2105;-53
2023/02/03 00:53:06;;;;;;;;;;;;;;;18.44;37.88;96673.81;10414985;28;2308;-52
2023/02/03 00:58:06;;;;;;;;;;;;;;;18.42;37.36;96666.13;10416250;28;2344;-53
2023/02/03 01:03:07;;;;;;;;;;;;;;;18.40;37.67;96664.78;10417094;28;2617;-55
2023/02/03 01:08:07;;;;;;;;;;;;;;;18.37;37.39;96671.31;10413472;28;2310;-52
2023/02/03 01:13:07;;;;;;;;;;;;;;;18.36;37.56;96676.81;10419021;28;2263;-53
2023/02/03 01:18:08;;;;;;;;;;;;;;;18.33;37.73;96693.00;10420667;28;2287;-51
2023/02/03 01:23:08;;;;;;;;;;;;;;;18.32;38.07;96694.81;10415447;28;2609;-50
2023/02/03 01:28:08;;;;;;;;;;;;;;;18.28;38.25;96682.44;10425813;28;2327;-51
2023/02/03 01:33:08;;;;;;;;;;;;;;;18.29;37.59;96668.25;10434244;28;2497;-52
2023/02/03 01:38:09;;;;;;;;;;;;;;;18.24;37.69;96655.84;10425256;28;2291;-51
2023/02/03 01:43:09;;;;;;;;;;;;;;;18.22;38.03;96651.84;10417339;28;2278;-54
2023/02/03 01:48:10;;;;;;;;;;;;;;;18.21;37.68;96645.84;10421430;28;2306;-53
2023/02/03 01:53:10;;;;;;;;;;;;;;;18.18;37.69;96642.88;10432903;28;2367;-52
2023/02/03 01:58:12;;;;;;;;;;;;;;;18.16;37.81;96648.38;10437031;28;2313;-49
2023/02/03 02:03:12;;;;;;;;;;;;;;;18.15;37.72;96640.72;10427026;28;2437;-50
2023/02/03 02:08:12;;;;;;;;;;;;;;;18.12;37.91;96635.94;10413132;28;2139;-52
2023/02/03 02:13:13;;;;;;;;;;;;;;;18.10;37.55;96636.19;10415589;28;2319;-50
2023/02/03 02:18:18;;;;;;;;;;;;;;;18.09;37.61;96639.06;10413570;28;2350;-53
2023/02/03 02:23:26;;;;;;;;;;;;;;;18.07;37.69;96644.56;10418435;28;2363;-54
2023/02/03 02:28:33;;;;;;;;;;;;;;;18.06;37.57;96636.88;10413017;28;2374;-50
2023/02/03 02:33:33;;;;;;;;;;;;;;;18.04;37.40;96649.44;10419495;28;2348;-49
2023/02/03 02:38:52;;;;;;;;;;;;;;;18.02;37.63;96643.66;10415353;28;2346;-50
2023/02/03 02:43:59;;;;;;;;;;;;;;;18.00;37.33;96651.75;10418875;28;1958;-55
2023/02/03 02:49:00;;;;;;;;;;;;;;;18.00;37.33;96664.06;10408368;28;1966;-51
2023/02/03 02:54:02;;;;;;;;;;;;;;;17.97;37.20;96654.06;10398597;28;2288;-52
2023/02/03 02:59:03;;;;;;;;;;;;;;;17.95;37.21;96640.38;10421887;28;2377;-55
2023/02/03 03:04:04;;;;;;;;;;;;;;;17.96;36.98;96644.59;10422440;28;1954;-52
2023/02/03 03:09:05;;;;;;;;;;;;;;;17.92;36.84;96651.34;10404854;28;2010;-50
2023/02/03 03:14:05;;;;;;;;;;;;;;;17.91;36.93;96640.03;10409928;28;2285;-52
2023/02/03 03:19:06;;;;;;;;;;;;;;;17.89;36.84;96652.59;10424463;28;2290;-49
2023/02/03 03:24:07;;;;;;;;;;;;;;;17.89;37.10;96652.59;10442073;28;2370;-51
2023/02/03 03:29:18;;;;;;;;;;;;;;;17.87;36.92;96650.22;10462097;28;2341;-53
2023/02/03 03:34:18;;;;;;;;;;;;;;;17.85;36.79;96631.28;10467291;28;2406;-53
2023/02/03 03:39:23;;;;;;;;;;;;;;;17.84;36.77;96629.72;10458084;28;2281;-52
2023/02/03 03:44:25;;;;;;;;;;;;;;;17.81;36.67;96606.56;10460189;28;2094;-53
2023/02/03 03:49:25;;;;;;;;;;;;;;;17.78;36.64;96609.66;10457830;28;2373;-51
2023/02/03 03:54:26;;;;;;;;;;;;;;;17.80;36.38;96617.31;10454820;28;2296;-52
2023/02/03 03:59:27;;;;;;;;;;;;;;;17.77;36.73;96621.19;10463565;28;2283;-51
2023/02/03 04:04:27;;;;;;;;;;;;;;;17.77;36.75;96623.81;10473289;28;2355;-52
2023/02/03 04:09:27;;;;;;;;;;;;;;;17.75;36.31;96611.94;10463461;28;2315;-50
2023/02/03 04:14:31;;;;;;;;;;;;;;;17.75;36.52;96633.72;10455969;28;2283;-54
2023/02/03 04:19:31;;;;;;;;;;;;;;;17.74;36.36;96657.56;10460664;28;2175;-52
2023/02/03 04:24:32;;;;;;;;;;;;;;;17.71;36.38;96650.97;10422842;28;2340;-53
2023/02/03 04:29:32;;;;;;;;;;;;;;;17.69;36.43;96639.91;10404571;28;2447;-54
2023/02/03 04:34:32;;;;;;;;;;;;;;;17.67;36.36;96665.56;10421269;28;2357;-51
2023/02/03 04:39:33;;;;;;;;;;;;;;;17.67;36.27;96634.09;10416708;28;2262;-50
2023/02/03 04:44:33;;;;;;;;;;;;;;;17.67;36.36;96655.09;10416604;28;2394;-50
2023/02/03 04:49:33;;;;;;;;;;;;;;;17.65;36.18;96672.88;10419078;28;2398;-52
2023/02/03 04:54:33;;;;;;;;;;;;;;;17.65;36.14;96678.13;10417325;28;1988;-48
2023/02/03 04:59:34;;;;;;;;;;;;;;;17.63;36.11;96656.56;10420573;28;2366;-52
2023/02/03 05:04:34;;;;;;;;;;;;;;;17.61;36.13;96661.25;10421330;28;2300;-54
2023/02/03 05:09:34;;;;;;;;;;;;;;;17.61;36.35;96644.72;10417187;28;2389;-50
2023/02/03 05:14:35;;;;;;;;;;;;;;;17.64;36.43;96660.00;10416357;28;1950;-50
2023/02/03 05:19:35;;;;;;;;;;;;;;;17.71;36.19;96660.66;10420193;28;2373;-50
2023/02/03 05:24:35;;;;;;;;;;;;;;;17.77;36.14;96651.84;10423855;28;2377;-50
2023/02/03 05:29:35;;;;;;;;;;;;;;;17.89;35.70;96648.16;10417456;28;2237;-51
2023/02/03 05:34:36;;;;;;;;;;;;;;;17.99;35.49;96633.63;10417965;28;2284;-49
2023/02/03 05:39:36;;;;;;;;;;;;;;;18.01;35.59;96624.47;10420286;28;1994;-51
2023/02/03 05:44:36;;;;;;;;;;;;;;;18.09;35.45;96620.69;10419075;28;2464;-49
2023/02/03 05:49:37;;;;;;;;;;;;;;;18.16;35.36;96610.81;10416753;28;2446;-50
2023/02/03 05:54:37;;;;;;;;;;;;;;;18.22;35.34;96604.63;10420160;28;1957;-51
2023/02/03 05:59:37;;;;;;;;;;;;;;;18.28;35.25;96630.72;10394964;28;2351;-53
2023/02/03 06:04:38;;;;;;;;;;;;;;;18.31;35.07;96632.88;10414918;28;2335;-50
2023/02/03 06:09:38;;;;;;;;;;;;;;;18.38;35.02;96630.88;10419348;28;2400;-53
2023/02/03 06:14:38;;;;;;;;;;;;;;;18.45;34.70;96636.00;10420146;28;2366;-54
2023/02/03 06:19:39;;;;;;;;;;;;;;;18.48;34.59;96617.97;10421745;28;2074;-50
2023/02/03 06:24:39;;;;;;;;;;;;;;;18.54;34.51;96629.34;10412376;28;2408;-53
2023/02/03 06:29:41;;;;;;;;;;;;;;;18.60;34.51;96654.63;10414039;28;2328;-52
2023/02/03 06:34:42;;;;;;;;;;;;;;;18.63;34.28;96639.19;10411734;28;2300;-52
2023/02/03 06:39:42;;;;;;;;;;;;;;;18.66;34.17;96624.78;10423548;28;2314;-50
2023/02/03 06:44:43;;;;;;;;;;;;;;;18.71;34.06;96619.63;10416238;28;2327;-52
2023/02/03 06:49:43;;;;;;;;;;;;;;;18.74;34.11;96631.47;10425707;28;2274;-53
2023/02/03 06:54:43;;;;;;;;;;;;;;;18.78;33.77;96630.75;10422146;28;2712;-52
2023/02/03 06:59:43;;;;;;;;;;;;;;;18.80;33.67;96660.19;10415725;28;2325;-50
2023/02/03 07:04:44;;;;;;;;;;;;;;;18.86;33.25;96661.06;10391178;28;2019;-49
2023/02/03 07:09:44;;;;;;;;;;;;;;;18.89;33.59;96652.72;10409578;28;1967;-48
2023/02/03 07:14:44;;;;;;;;;;;;;;;18.91;33.73;96640.13;10417207;28;2685;-51
2023/02/03 07:19:45;;;;;;;;;;;;;;;18.94;33.42;96629.91;10413509;28;2344;-50
2023/02/03 07:24:45;;;;;;;;;;;;;;;18.96;33.31;96614.72;10413614;28;2322;-52
2023/02/03 07:29:46;;;;;;;;;;;;;;;18.97;33.29;96618.13;10407803;28;2221;-51
2023/02/03 07:34:46;;;;;;;;;;;;;;;19.00;33.15;96605.31;10412536;28;2341;-52
2023/02/03 07:39:46;;;;;;;;;;;;;;;18.98;33.15;96583.72;10414776;28;2349;-50
2023/02/03 07:44:46;;;;;;;;;;;;;;;19.00;33.19;96584.28;10421588;28;2323;-49
2023/02/03 07:49:47;;;;;;;;;;;;;;;19.13;33.10;96596.28;10416532;28;2352;-54
2023/02/03 07:54:47;;;;;;;;;;;;;;;19.28;32.70;96567.56;10427383;28;2338;-53
2023/02/03 07:59:47;;;;;;;;;;;;;;;19.41;32.45;96583.78;10430530;28;1994;-52
2023/02/03 08:04:47;;;;;;;;;;;;;;;19.54;32.83;96592.34;10424693;28;1965;-53
2023/02/03 08:09:48;;;;;;;;;;;;;;;19.65;32.73;96600.09;10419504;28;2319;-50
2023/02/03 08:14:48;;;;;;;;;;;;;;;19.71;32.56;96582.53;10427397;28;2252;-51
2023/02/03 08:19:48;;;;;;;;;;;;;;;19.77;32.43;96611.25;10421574;28;2301;-51
2023/02/03 08:24:49;;;;;;;;;;;;;;;19.83;32.35;96617.38;10451819;28;1977;-49
2023/02/03 08:29:49;;;;;;;;;;;;;;;19.83;31.76;96607.63;10476743;28;2350;-52
2023/02/03 08:34:49;;;;;;;;;;;;;;;19.85;31.69;96615.28;10463612;28;2260;-53
2023/02/03 08:39:50;;;;;;;;;;;;;;;19.78;31.39;96622.59;10471301;28;2312;-56
2023/02/03 08:44:50;;;;;;;;;;;;;;;19.83;31.64;96638.41;10463852;28;2301;-52
2023/02/03 08:49:50;;;;;;;;;;;;;;;19.84;31.48;96611.06;10457879;28;2073;-54
2023/02/03 08:54:50;;;;;;;;;;;;;;;19.84;31.77;96587.41;10458990;28;2336;-55
2023/02/03 08:59:51;;;;;;;;;;;;;;;19.84;31.57;96593.47;10461578;28;2435;-50
2023/02/03 09:04:51;;;;;;;;;;;;;;;19.83;31.40;96585.78;10458714;28;2262;-52
2023/02/03 09:09:51;;;;;;;;;;;;;;;19.81;31.46;96578.16;10474587;28;2274;-53
2023/02/03 09:14:52;;;;;;;;;;;;;;;19.77;31.32;96592.06;10477468;28;2350;-52
2023/02/03 09:19:52;;;;;;;;;;;;;;;19.75;31.45;96594.13;10463804;28;1956;-51
2023/02/03 09:24:52;;;;;;;;;;;;;;;19.71;31.71;96591.22;10422400;28;2038;-53
2023/02/03 09:29:53;;;;;;;;;;;;;;;19.66;31.78;96595.63;10417178;28;2296;-54
2023/02/03 09:34:53;;;;;;;;;;;;;;;19.65;31.54;96578.25;10416099;28;2690;-52
2023/02/03 09:39:55;;;;;;;;;;;;;;;19.61;31.65;96590.31;10417499;28;2389;-54
2023/02/03 09:45:01;;;;;;;;;;;;;;;19.56;31.84;96588.41;10418362;28;2262;-53
2023/02/03 09:50:05;;;;;;;;;;;;;;;19.51;31.75;96577.06;10421863;28;2395;-53
2023/02/03 09:55:05;;;;;;;;;;;;;;;19.55;31.75;96593.94;10417874;28;2363;-54
2023/02/03 10:00:18;;;;;;;;;;;;;;;19.51;31.98;96577.06;10418776;28;2254;-56
2023/02/03 10:05:24;;;;;;;;;;;;;;;19.49;31.95;96572.03;10413914;28;2413;-54
2023/02/03 10:10:29;;;;;;;;;;;;;;;19.45;32.00;96582.25;10424762;28;2335;-51
2023/02/03 10:15:45;;;;;;;;;;;;;;;19.44;31.81;96585.94;10410842;28;2282;-54
2023/02/03 10:20:55;;;;;;;;;;;;;;;19.43;31.73;96597.47;10409650;28;2289;-52
2023/02/03 10:25:57;;;;;;;;;;;;;;;19.41;31.66;96583.78;10420010;28;2290;-52
2023/02/03 10:30:59;;;;;;;;;;;;;;;19.36;31.70;96570.59;10398655;28;2334;-55
2023/02/03 10:35:59;;;;;;;;;;;;;;;19.35;32.03;96571.63;10411646;28;2398;-55
2023/02/03 10:40:59;;;;;;;;;;;;;;;19.33;31.99;96557.91;10418317;28;2338;-53
2023/02/03 10:45:59;;;;;;;;;;;;;;;19.32;32.13;96566.03;10418034;28;2353;-52
2023/02/03 10:51:00;;;;;;;;;;;;;;;19.28;32.11;96563.09;10403906;28;2265;-52
2023/02/03 10:56:04;;;;;;;;;;;;;;;19.26;32.03;96559.94;10416466;28;2283;-54
2023/02/03 11:01:18;;;;;;;;;;;;;;;19.22;31.99;96561.47;10412436;28;1948;-52
2023/02/03 11:06:18;;;;;;;;;;;;;;;19.21;32.32;96580.88;10417671;28;2276;-56
2023/02/03 11:11:23;;;;;;;;;;;;;;;19.18;32.02;96541.97;10397283;28;3298;-51
2023/02/03 11:16:24;;;;;;;;;;;;;;;19.16;32.07;96532.72;10420612;28;2331;-54
2023/02/03 11:21:25;;;;;;;;;;;;;;;19.12;31.93;96511.41;10408663;28;1960;-52
2023/02/03 11:26:27;;;;;;;;;;;;;;;19.14;32.02;96532.19;10407775;28;2387;-53
2023/02/03 11:31:28;;;;;;;;;;;;;;;19.12;32.11;96519.28;10420001;28;2356;-56
2023/02/03 11:36:29;;;;;;;;;;;;;;;19.13;32.26;96507.72;10414049;28;2046;-48
2023/02/03 11:41:29;;;;;;;;;;;;;;;19.16;32.75;96509.06;10428411;28;2391;-51
2023/02/03 11:46:29;;;;;;;;;;;;;;;19.21;33.39;96494.16;10416440;28;2307;-51
2023/02/03 11:51:39;;;;;;;;;;;;;;;19.33;33.23;96486.13;10420105;28;1975;-48
2023/02/03 11:56:56;;;;;;;;;;;;;;;19.43;32.94;96487.03;10428513;28;2285;-50
2023/02/03 12:02:03;;;;;;;;;;;;;;;19.55;32.70;96480.84;10435934;28;2295;-53
2023/02/03 12:07:26;;;;;;;;;;;;;;;19.66;32.43;96479.91;10430347;28;2682;-52
2023/02/03 12:12:38;;;;;;;;;;;;;;;19.72;32.09;96484.94;10440016;28;2438;-51
2023/02/03 12:17:39;;;;;;;;;;;;;;;19.75;31.77;96467.88;10427576;28;2429;-47
2023/02/03 12:22:44;;;;;;;;;;;;;;;19.79;31.64;96442.66;10408539;28;2336;-51
2023/02/03 12:27:47;;;;;;;;;;;;;;;19.84;31.34;96447.97;10399766;28;2292;-51
2023/02/03 12:32:52;;;;;;;;;;;;;;;19.77;31.58;96418.44;10423032;28;2374;-51
2023/02/03 12:37:55;;;;;;;;;;;;;;;19.69;31.46;96409.16;10414569;28;2193;-49
2023/02/03 12:42:57;;;;;;;;;;;;;;;19.62;31.70;96413.84;10404196;28;2411;-54
2023/02/03 12:48:00;;;;;;;;;;;;;;;19.59;31.36;96397.78;10410472;28;2351;-53
2023/02/03 12:53:04;;;;;;;;;;;;;;;19.54;31.49;96379.34;10419443;28;2396;-49
2023/02/03 12:58:05;;;;;;;;;;;;;;;19.51;31.62;96379.84;10402462;28;2328;-53
2023/02/03 13:03:16;;;;;;;;;;;;;;;19.44;31.44;96386.09;10382011;28;2312;-53
2023/02/03 13:08:35;;;;;;;;;;;;;;;19.47;31.67;96371.66;10391089;28;2336;-52
2023/02/03 13:13:41;;;;;;;;;;;;;;;19.45;31.97;96369.28;10422301;28;2287;-54
2023/02/03 13:18:41;;;;;;;;;;;;;;;19.43;31.75;96381.88;10406847;28;2295;-50
2023/02/03 13:23:46;;;;;;;;;;;;;;;19.43;31.95;96389.75;10418507;28;2264;-52
2023/02/03 13:29:05;;;;;;;;;;;;;;;19.41;31.82;96383.19;10445744;28;2327;-54
2023/02/03 13:34:08;;;;;;;;;;;;;;;19.40;31.75;96376.34;10454583;28;2422;-51
2023/02/03 13:39:28;;;;;;;;;;;;;;;19.39;31.54;96351.88;10456464;28;2323;-51
2023/02/03 13:44:28;;;;;;;;;;;;;;;19.37;31.69;96342.66;10461322;28;2335;-54
2023/02/03 13:49:29;;;;;;;;;;;;;;;19.37;31.47;96335.56;10459040;28;1962;-53
2023/02/03 13:54:50;;;;;;;;;;;;;;;19.34;31.61;96322.94;10465704;28;2357;-54
2023/02/03 14:00:31;;;;;;;;;;;;;;;19.35;31.42;96340.28;10462357;28;2014;-53
2023/02/03 14:05:53;;;;;;;;;;;;;;;19.36;31.49;96317.41;10459456;28;2043;-52
2023/02/03 14:11:32;;;;;;;;;;;;;;;19.36;31.40;96299.81;10461561;28;2428;-52
2023/02/03 14:16:56;;;;;;;;;;;;;;;19.37;31.25;96282.22;10458316;28;1930;-52
2023/02/03 14:22:17;;;;;;;;;;;;;;;19.37;31.21;96258.56;10464794;28;2375;-52
2023/02/03 14:27:37;;;;;;;;;;;;;;;19.37;31.29;96275.09;10407676;28;2332;-52
2023/02/03 14:32:58;;;;;;;;;;;;;;;19.38;31.39;96289.84;10416810;28;1919;-52
2023/02/03 14:38:19;;;;;;;;;;;;;;;19.39;31.46;96309.81;10396957;28;2329;-53
2023/02/03 14:43:59;;;;;;;;;;;;;;;19.40;31.26;96303.53;10421292;28;2346;-51
2023/02/03 14:49:29;;;;;;;;;;;;;;;19.42;31.05;96303.25;10406427;28;1899;-54
2023/02/03 14:54:49;;;;;;;;;;;;;;;19.42;30.97;96272.50;10393767;28;2349;-51
2023/02/03 15:00:19;;;;;;;;;;;;;;;19.43;30.77;96276.72;10418622;28;2294;-54
2023/02/03 15:05:43;;;;;;;;;;;;;;;19.41;31.23;96257.75;10415033;28;2328;-52
2023/02/03 15:11:22;;;;;;;;;;;;;;;19.44;30.86;96259.09;10413088;28;2343;-53
2023/02/03 15:16:43;;;;;;;;;;;;;;;19.45;30.59;96279.09;10418557;28;2307;-53
2023/02/03 15:22:22;;;;;;;;;;;;;;;19.47;30.80;96266.50;10413931;28;1946;-54
2023/02/03 15:27:23;;;;;;;;;;;;;;;19.48;30.71;96284.63;10403455;28;2303;-51
2023/02/03 15:32:23;;;;;;;;;;;;;;;19.48;30.64;96292.53;10410845;28;2308;-53
2023/02/03 15:37:31;;;;;;;;;;;;;;;19.48;30.65;96308.31;10404486;28;2298;-53
2023/02/03 15:42:39;;;;;;;;;;;;;;;19.47;30.94;96304.06;10391211;28;2326;-51
2023/02/03 15:47:40;;;;;;;;;;;;;;;19.49;30.65;96259.91;10413364;28;2337;-51
2023/02/03 15:52:41;;;;;;;;;;;;;;;19.49;30.73;96269.66;10408118;28;2240;-52
2023/02/03 15:57:41;;;;;;;;;;;;;;;19.49;31.29;96288.84;10416551;28;2390;-49
2023/02/03 16:02:42;;;;;;;;;;;;;;;19.54;31.21;96303.09;10399353;28;1986;-53
2023/02/03 16:07:42;;;;;;;;;;;;;;;19.56;31.15;96301.78;10425811;28;2128;-51
2023/02/03 16:12:42;;;;;;;;;;;;;;;19.59;30.67;96295.22;10421870;28;2254;-53
2023/02/03 16:17:43;;;;;;;;;;;;;;;19.59;31.21;96287.31;10423869;28;2319;-51
2023/02/03 16:22:43;;;;;;;;;;;;;;;19.64;31.15;96285.50;10415086;28;2311;-53
2023/02/03 16:27:44;;;;;;;;;;;;;;;19.67;31.51;96271.88;10418422;28;2688;-58
2023/02/03 16:54:12;;;;;;;;;;;;;;;19.84;31.83;96345.34;10407827;28;2257;-51
2023/02/03 16:59:13;;;;;;;;;;;;;;;19.98;31.77;96354.38;10425986;28;2385;-51
2023/02/03 17:04:13;;;;;;;;;;;;;;;19.93;31.72;96359.59;10426239;28;2272;-53
2023/02/03 17:09:13;;;;;;;;;;;;;;;19.92;31.31;96352.75;10433369;28;2371;-53
2023/02/03 17:14:13;;;;;;;;;;;;;;;19.91;31.51;96340.63;10434136;28;2280;-54
2023/02/03 17:19:14;;;;;;;;;;;;;;;19.88;31.46;96365.66;10433344;28;1985;-48
2023/02/03 17:24:14;;;;;;;;;;;;;;;19.89;31.37;96369.03;10422674;28;1954;-53
2023/02/03 17:29:14;;;;;;;;;;;;;;;19.86;31.72;96377.47;10413820;28;2043;-53
2023/02/03 17:34:15;;;;;;;;;;;;;;;19.84;31.58;96361.13;10429580;28;2327;-52
2023/02/03 17:39:15;;;;;;;;;;;;;;;19.82;31.40;96373.75;10420550;28;2343;-51
2023/02/03 17:44:15;;;;;;;;;;;;;;;19.84;33.06;96369.03;10412185;28;2333;-50
2023/02/03 17:49:17;;;;;;;;;;;;;;;19.88;35.13;96363.00;10413987;28;2324;-51
2023/02/03 17:54:17;;;;;;;;;;;;;;;19.89;35.61;96380.38;10425454;28;2312;-53
2023/02/03 17:59:17;;;;;;;;;;;;;;;19.86;36.33;96370.38;10412943;28;2394;-52
2023/02/03 18:04:18;;;;;;;;;;;;;;;19.83;34.83;96370.06;10402572;28;1895;-56
2023/02/03 18:09:18;;;;;;;;;;;;;;;19.79;34.84;96366.34;10424052;28;2310;-51
2023/02/03 18:14:18;;;;;;;;;;;;;;;19.75;34.62;96366.06;10421475;28;2303;-51
2023/02/03 18:19:19;;;;;;;;;;;;;;;19.72;35.16;96358.69;10421251;28;2000;-54
2023/02/03 18:24:21;;;;;;;;;;;;;;;19.70;35.00;96370.53;10465898;28;2435;-54
2023/02/03 18:29:23;;;;;;;;;;;;;;;19.68;34.82;96347.06;10455448;28;2383;-55
2023/02/03 18:34:24;;;;;;;;;;;;;;;19.63;35.17;96354.16;10461328;28;2283;-54
2023/02/03 18:39:24;;;;;;;;;;;;;;;19.62;35.13;96363.88;10460132;28;2300;-52
2023/02/03 18:44:25;;;;;;;;;;;;;;;19.62;34.62;96369.13;10459207;28;1981;-54
2023/02/03 18:49:26;;;;;;;;;;;;;;;19.61;35.18;96329.94;10464283;28;2572;-53
2023/02/03 18:54:28;;;;;;;;;;;;;;;19.64;35.49;96290.00;10469957;28;2608;-51
2023/02/03 18:59:28;;;;;;;;;;;;;;;19.62;35.57;96278.94;10470200;28;2629;-52
2023/02/03 19:04:28;;;;;;;;;;;;;;;19.63;34.03;96268.16;10477625;28;2604;-54
2023/02/03 19:09:29;;;;;;;;;;;;;;;19.62;34.95;96250.03;10473722;28;2780;-54
2023/02/03 19:14:29;;;;;;;;;;;;;;;19.63;35.54;96278.69;10473461;28;2557;-52
2023/02/03 19:19:29;;;;;;;;;;;;;;;19.65;34.87;96275.78;10467315;28;1750;-54
2023/02/03 19:24:29;;;;;;;;;;;;;;;19.65;34.97;96289.75;10476674;28;2600;-49
2023/02/03 19:29:30;;;;;;;;;;;;;;;19.64;34.84;96300.53;10465295;28;1952;-54
2023/02/03 19:34:30;;;;;;;;;;;;;;;19.65;34.54;96302.09;10477791;28;2608;-50
2023/02/03 19:39:31;;;;;;;;;;;;;;;19.66;33.67;96325.50;10461741;28;2609;-50
2023/02/03 19:44:32;;;;;;;;;;;;;;;19.65;34.15;96315.25;10475235;28;2548;-50
2023/02/03 19:49:33;;;;;;;;;;;;;;;19.67;33.53;96313.16;10478390;28;2609;-54
2023/02/03 19:54:33;;;;;;;;;;;;;;;19.64;33.49;96290.00;10469332;28;2584;-54
2023/02/03 19:59:33;;;;;;;;;;;;;;;19.69;33.87;96305.78;10458936;28;1988;-50
2023/02/03 20:04:34;;;;;;;;;;;;;;;19.64;32.94;96314.44;10464274;28;2533;-51
2023/02/03 20:09:34;;;;;;;;;;;;;;;19.68;32.83;96343.69;10458198;28;2014;-54
2023/02/03 20:14:35;;;;;;;;;;;;;;;19.67;33.09;96329.72;10467855;28;2586;-53
2023/02/03 20:19:35;;;;;;;;;;;;;;;19.68;33.07;96312.13;10469651;28;2548;-52
2023/02/03 20:24:36;;;;;;;;;;;;;;;19.73;33.58;96330.53;10431214;28;2604;-52
2023/02/03 20:29:36;;;;;;;;;;;;;;;19.80;33.86;96337.19;10416074;28;2139;-52
2023/02/03 20:34:36;;;;;;;;;;;;;;;19.85;33.88;96349.56;10434167;28;2632;-53
2023/02/03 20:39:36;;;;;;;;;;;;;;;19.85;34.19;96352.97;10416749;28;2644;-52
2023/02/03 20:44:37;;;;;;;;;;;;;;;19.88;34.46;96356.94;10398901;28;2660;-54
2023/02/03 20:49:37;;;;;;;;;;;;;;;19.89;34.94;96376.94;10422396;28;1974;-54
2023/02/03 20:54:37;;;;;;;;;;;;;;;19.86;35.45;96388.00;10429547;28;2645;-55
2023/02/03 20:59:38;;;;;;;;;;;;;;;19.87;35.58;96368.50;10425307;28;2605;-53
2023/02/03 21:04:56;;;;;;;;;;;;;;;19.83;35.75;96368.22;10422260;28;2623;-55
2023/02/03 21:09:57;;;;;;;;;;;;;;;19.78;35.34;96367.41;10419413;28;1923;-51
2023/02/03 21:14:57;;;;;;;;;;;;;;;19.72;35.02;96386.84;10417663;28;2639;-50
2023/02/03 21:19:58;;;;;;;;;;;;;;;19.62;34.82;96378.88;10400778;28;2540;-51
2023/02/03 21:24:58;;;;;;;;;;;;;;;19.56;34.47;96378.03;10458014;28;2629;-53
2023/02/03 21:29:59;;;;;;;;;;;;;;;19.51;34.03;96364.84;10457000;28;3025;-53
2023/02/03 21:35:00;;;;;;;;;;;;;;;19.43;34.35;96345.06;10463674;28;2566;-51
2023/02/03 21:40:00;;;;;;;;;;;;;;;19.35;34.30;96331.63;10455318;28;2991;-53
2023/02/03 21:45:00;;;;;;;;;;;;;;;19.28;34.50;96341.50;10447533;28;2595;-53
2023/02/03 21:50:00;;;;;;;;;;;;;;;19.21;34.58;96344.34;10454609;28;2607;-55
2023/02/03 21:55:01;;;;;;;;;;;;;;;19.17;34.53;96355.59;10453856;28;2643;-55
2023/02/03 22:00:01;;;;;;;;;;;;;;;19.10;34.45;96361.03;10457160;28;1970;-51
2023/02/03 22:05:02;;;;;;;;;;;;;;;19.06;34.57;96351.31;10462525;28;2586;-53
2023/02/03 22:10:02;;;;;;;;;;;;;;;19.02;34.60;96374.63;10454279;28;2561;-51
2023/02/03 22:15:03;;;;;;;;;;;;;;;18.98;34.48;96378.81;10455781;28;2586;-51
2023/02/03 22:20:03;;;;;;;;;;;;;;;18.93;34.49;96375.34;10461221;28;2566;-54
2023/02/03 22:25:03;;;;;;;;;;;;;;;18.89;34.59;96364.53;10417470;28;2550;-51
2023/02/03 22:30:04;;;;;;;;;;;;;;;18.85;34.47;96381.03;10410746;28;2101;-56
2023/02/03 22:35:04;;;;;;;;;;;;;;;18.78;34.59;96375.97;10413563;28;2571;-55
2023/02/03 22:40:05;;;;;;;;;;;;;;;18.76;34.62;96380.69;10411601;28;2599;-54
2023/02/03 22:45:06;;;;;;;;;;;;;;;18.73;34.38;96381.19;10414533;28;2535;-53
2023/02/03 22:50:06;;;;;;;;;;;;;;;18.68;34.52;96396.88;10415637;28;2617;-53
2023/02/03 22:55:07;;;;;;;;;;;;;;;18.66;34.21;96401.59;10416514;28;2108;-53
2023/02/03 23:00:10;;;;;;;;;;;;;;;18.63;34.54;96402.06;10416482;28;1979;-51
2023/02/03 23:05:11;;;;;;;;;;;;;;;18.60;34.36;96424.38;10384911;28;2661;-50
2023/02/03 23:10:12;;;;;;;;;;;;;;;18.56;34.51;96438.22;10413680;28;2594;-52
2023/02/03 23:15:12;;;;;;;;;;;;;;;18.54;34.70;96446.34;10424327;28;2525;-50
2023/02/03 23:20:13;;;;;;;;;;;;;;;18.53;34.93;96444.75;10426298;28;2596;-50
2023/02/03 23:25:13;;;;;;;;;;;;;;;18.50;35.02;96465.47;10425353;28;2589;-49
2023/02/03 23:30:14;;;;;;;;;;;;;;;18.46;35.14;96477.47;10432718;28;2576;-54
2023/02/03 23:40:33;;;;;;;;;;;;;;;18.42;35.13;96458.75;10434161;28;2562;-52
2023/02/03 23:45:33;;;;;;;;;;;;;;;18.40;35.02;96481.03;10438338;28;2588;-53
2023/02/03 23:50:33;;;;;;;;;;;;;;;18.36;34.96;96506.19;10443129;28;2539;-52
2023/02/03 23:55:35;;;;;;;;;;;;;;;18.35;34.89;96504.59;10440158;28;2611;-50
